sensor_id;sensor_type;location;lat;lon;timestamp;P1;durP1;ratioP1;P2;durP2;ratioP2
4317;SDS011;2172;53.576;9.934;2023-02-18T00:00:06;14.23;;;4.10;;
4317;SDS011;2172;53.576;9.934;2023-02-18T00:02:37;16.63;;;4.30;;
4317;SDS011;2172;53.576;9.934;2023-02-18T00:05:05;18.97;;;5.03;;
4317;SDS011;2172;53.576;9.934;2023-02-18T00:07:33;16.20;;;3.70;;
4317;SDS011;2172;53.576;9.934;2023-02-18T00:10:01;13.10;;;4.67;;
4317;SDS011;2172;53.576;9.934;2023-02-18T00:12:30;25.13;;;4.63;;
4317;SDS011;2172;53.576;9.934;2023-02-18T00:14:59;10.53;;;3.67;;
4317;SDS011;2172;53.576;9.934;2023-02-18T00:17:27;19.53;;;4.90;;
4317;SDS011;2172;53.576;9.934;2023-02-18T00:19:54;28.43;;;5.90;;
4317;SDS011;2172;53.576;9.934;2023-02-18T00:22:40;22.30;;;6.37;;
4317;SDS011;2172;53.576;9.934;2023-02-18T00:25:08;21.87;;;6.17;;
4317;SDS011;2172;53.576;9.934;2023-02-18T00:27:35;18.00;;;4.43;;
4317;SDS011;2172;53.576;9.934;2023-02-18T00:30:05;26.00;;;4.97;;
4317;SDS011;2172;53.576;9.934;2023-02-18T00:32:33;18.43;;;5.00;;
4317;SDS011;2172;53.576;9.934;2023-02-18T00:35:01;20.93;;;4.60;;
4317;SDS011;2172;53.576;9.934;2023-02-18T00:37:29;18.73;;;4.77;;
4317;SDS011;2172;53.576;9.934;2023-02-18T00:39:57;22.73;;;5.80;;
4317;SDS011;2172;53.576;9.934;2023-02-18T00:42:24;22.47;;;4.80;;
4317;SDS011;2172;53.576;9.934;2023-02-18T00:44:53;14.23;;;4.67;;
4317;SDS011;2172;53.576;9.934;2023-02-18T00:47:22;27.17;;;5.80;;
4317;SDS011;2172;53.576;9.934;2023-02-18T00:49:49;13.37;;;4.90;;
4317;SDS011;2172;53.576;9.934;2023-02-18T00:52:17;18.50;;;7.10;;
4317;SDS011;2172;53.576;9.934;2023-02-18T00:54:44;13.43;;;4.33;;
4317;SDS011;2172;53.576;9.934;2023-02-18T00:57:12;20.10;;;5.40;;
4317;SDS011;2172;53.576;9.934;2023-02-18T00:59:40;22.77;;;6.50;;
4317;SDS011;2172;53.576;9.934;2023-02-18T01:02:07;11.80;;;4.50;;
4317;SDS011;2172;53.576;9.934;2023-02-18T01:04:36;22.53;;;6.70;;
4317;SDS011;2172;53.576;9.934;2023-02-18T01:07:04;17.60;;;3.97;;
4317;SDS011;2172;53.576;9.934;2023-02-18T01:09:34;24.83;;;5.23;;
4317;SDS011;2172;53.576;9.934;2023-02-18T01:12:02;20.87;;;4.80;;
4317;SDS011;2172;53.576;9.934;2023-02-18T01:14:31;22.60;;;4.50;;
4317;SDS011;2172;53.576;9.934;2023-02-18T01:16:58;18.00;;;4.47;;
4317;SDS011;2172;53.576;9.934;2023-02-18T01:19:26;19.23;;;4.80;;
4317;SDS011;2172;53.576;9.934;2023-02-18T01:21:54;21.73;;;4.70;;
4317;SDS011;2172;53.576;9.934;2023-02-18T01:24:22;15.90;;;3.90;;
4317;SDS011;2172;53.576;9.934;2023-02-18T01:26:50;16.17;;;3.87;;
4317;SDS011;2172;53.576;9.934;2023-02-18T01:29:17;20.60;;;4.50;;
4317;SDS011;2172;53.576;9.934;2023-02-18T01:31:45;22.37;;;4.83;;
4317;SDS011;2172;53.576;9.934;2023-02-18T01:34:13;24.30;;;4.60;;
4317;SDS011;2172;53.576;9.934;2023-02-18T01:36:40;13.50;;;5.23;;
4317;SDS011;2172;53.576;9.934;2023-02-18T01:39:09;16.97;;;4.30;;
4317;SDS011;2172;53.576;9.934;2023-02-18T01:41:37;22.90;;;4.57;;
4317;SDS011;2172;53.576;9.934;2023-02-18T01:44:14;17.23;;;4.40;;
4317;SDS011;2172;53.576;9.934;2023-02-18T01:46:44;21.90;;;5.30;;
4317;SDS011;2172;53.576;9.934;2023-02-18T01:49:13;21.57;;;4.90;;
4317;SDS011;2172;53.576;9.934;2023-02-18T01:51:43;24.97;;;5.40;;
4317;SDS011;2172;53.576;9.934;2023-02-18T01:54:16;26.23;;;4.53;;
4317;SDS011;2172;53.576;9.934;2023-02-18T01:56:47;22.83;;;5.50;;
4317;SDS011;2172;53.576;9.934;2023-02-18T01:59:19;20.23;;;5.43;;
4317;SDS011;2172;53.576;9.934;2023-02-18T02:01:49;18.00;;;5.30;;
4317;SDS011;2172;53.576;9.934;2023-02-18T02:04:16;18.23;;;4.80;;
4317;SDS011;2172;53.576;9.934;2023-02-18T02:06:44;17.17;;;4.13;;
4317;SDS011;2172;53.576;9.934;2023-02-18T02:09:12;14.73;;;4.90;;
4317;SDS011;2172;53.576;9.934;2023-02-18T02:11:59;15.17;;;3.33;;
4317;SDS011;2172;53.576;9.934;2023-02-18T02:14:52;24.63;;;5.60;;
4317;SDS011;2172;53.576;9.934;2023-02-18T02:17:29;17.27;;;5.13;;
4317;SDS011;2172;53.576;9.934;2023-02-18T02:23:15;21.77;;;4.50;;
4317;SDS011;2172;53.576;9.934;2023-02-18T02:26:22;14.07;;;5.70;;
4317;SDS011;2172;53.576;9.934;2023-02-18T02:29:27;21.40;;;4.57;;
4317;SDS011;2172;53.576;9.934;2023-02-18T02:32:31;17.63;;;3.87;;
4317;SDS011;2172;53.576;9.934;2023-02-18T02:35:37;23.17;;;5.40;;
4317;SDS011;2172;53.576;9.934;2023-02-18T02:38:11;14.60;;;5.20;;
4317;SDS011;2172;53.576;9.934;2023-02-18T02:40:43;20.30;;;6.37;;
4317;SDS011;2172;53.576;9.934;2023-02-18T02:43:16;13.47;;;5.17;;
4317;SDS011;2172;53.576;9.934;2023-02-18T02:45:48;13.23;;;4.37;;
4317;SDS011;2172;53.576;9.934;2023-02-18T02:48:22;20.03;;;4.00;;
4317;SDS011;2172;53.576;9.934;2023-02-18T02:50:58;16.20;;;3.90;;
4317;SDS011;2172;53.576;9.934;2023-02-18T02:53:34;15.13;;;4.10;;
4317;SDS011;2172;53.576;9.934;2023-02-18T02:56:02;11.63;;;3.90;;
4317;SDS011;2172;53.576;9.934;2023-02-18T02:58:30;14.67;;;3.80;;
4317;SDS011;2172;53.576;9.934;2023-02-18T03:01:06;14.13;;;3.43;;
4317;SDS011;2172;53.576;9.934;2023-02-18T03:03:56;10.43;;;4.00;;
4317;SDS011;2172;53.576;9.934;2023-02-18T03:06:53;12.70;;;4.40;;
4317;SDS011;2172;53.576;9.934;2023-02-18T03:09:30;14.83;;;3.70;;
4317;SDS011;2172;53.576;9.934;2023-02-18T03:12:04;21.77;;;3.43;;
4317;SDS011;2172;53.576;9.934;2023-02-18T03:14:37;11.87;;;4.53;;
4317;SDS011;2172;53.576;9.934;2023-02-18T03:17:14;17.50;;;4.70;;
4317;SDS011;2172;53.576;9.934;2023-02-18T03:19:48;17.30;;;3.93;;
4317;SDS011;2172;53.576;9.934;2023-02-18T03:22:22;21.60;;;5.30;;
4317;SDS011;2172;53.576;9.934;2023-02-18T03:24:54;10.23;;;3.63;;
4317;SDS011;2172;53.576;9.934;2023-02-18T03:27:24;18.23;;;3.97;;
4317;SDS011;2172;53.576;9.934;2023-02-18T03:29:56;13.47;;;3.27;;
4317;SDS011;2172;53.576;9.934;2023-02-18T03:32:25;22.77;;;4.13;;
4317;SDS011;2172;53.576;9.934;2023-02-18T03:34:56;23.43;;;4.57;;
4317;SDS011;2172;53.576;9.934;2023-02-18T03:37:32;13.90;;;3.20;;
4317;SDS011;2172;53.576;9.934;2023-02-18T03:40:05;12.83;;;3.37;;
4317;SDS011;2172;53.576;9.934;2023-02-18T03:42:33;22.17;;;4.97;;
4317;SDS011;2172;53.576;9.934;2023-02-18T03:45:01;17.03;;;5.53;;
4317;SDS011;2172;53.576;9.934;2023-02-18T03:47:28;15.90;;;3.60;;
4317;SDS011;2172;53.576;9.934;2023-02-18T03:49:56;13.20;;;3.53;;
4317;SDS011;2172;53.576;9.934;2023-02-18T03:52:24;8.07;;;2.67;;
4317;SDS011;2172;53.576;9.934;2023-02-18T03:54:53;17.20;;;4.40;;
4317;SDS011;2172;53.576;9.934;2023-02-18T03:57:20;12.20;;;2.43;;
4317;SDS011;2172;53.576;9.934;2023-02-18T03:59:48;9.63;;;2.33;;
4317;SDS011;2172;53.576;9.934;2023-02-18T04:02:15;15.23;;;3.13;;
4317;SDS011;2172;53.576;9.934;2023-02-18T04:04:43;11.67;;;3.00;;
4317;SDS011;2172;53.576;9.934;2023-02-18T04:07:10;10.07;;;3.30;;
4317;SDS011;2172;53.576;9.934;2023-02-18T04:09:40;14.93;;;5.10;;
4317;SDS011;2172;53.576;9.934;2023-02-18T04:12:09;10.40;;;2.77;;
4317;SDS011;2172;53.576;9.934;2023-02-18T04:14:36;7.00;;;2.90;;
4317;SDS011;2172;53.576;9.934;2023-02-18T04:17:04;10.13;;;3.87;;
4317;SDS011;2172;53.576;9.934;2023-02-18T04:19:31;20.53;;;4.40;;
4317;SDS011;2172;53.576;9.934;2023-02-18T04:22:00;8.37;;;3.03;;
4317;SDS011;2172;53.576;9.934;2023-02-18T04:24:27;11.37;;;3.30;;
4317;SDS011;2172;53.576;9.934;2023-02-18T04:26:55;12.17;;;2.47;;
4317;SDS011;2172;53.576;9.934;2023-02-18T04:29:24;18.20;;;3.03;;
4317;SDS011;2172;53.576;9.934;2023-02-18T04:31:51;12.87;;;3.17;;
4317;SDS011;2172;53.576;9.934;2023-02-18T04:34:19;12.07;;;3.37;;
4317;SDS011;2172;53.576;9.934;2023-02-18T04:36:46;14.77;;;3.10;;
4317;SDS011;2172;53.576;9.934;2023-02-18T04:39:14;13.17;;;3.00;;
4317;SDS011;2172;53.576;9.934;2023-02-18T04:41:41;10.43;;;2.50;;
4317;SDS011;2172;53.576;9.934;2023-02-18T04:44:09;12.50;;;2.70;;
4317;SDS011;2172;53.576;9.934;2023-02-18T04:46:38;13.87;;;3.13;;
4317;SDS011;2172;53.576;9.934;2023-02-18T04:49:05;9.43;;;3.27;;
4317;SDS011;2172;53.576;9.934;2023-02-18T04:51:33;10.87;;;2.87;;
4317;SDS011;2172;53.576;9.934;2023-02-18T04:54:02;12.23;;;3.83;;
4317;SDS011;2172;53.576;9.934;2023-02-18T04:56:29;11.37;;;3.20;;
4317;SDS011;2172;53.576;9.934;2023-02-18T04:58:57;9.40;;;3.03;;
4317;SDS011;2172;53.576;9.934;2023-02-18T05:01:24;14.70;;;3.77;;
4317;SDS011;2172;53.576;9.934;2023-02-18T05:03:53;7.90;;;2.80;;
4317;SDS011;2172;53.576;9.934;2023-02-18T05:06:21;10.43;;;2.70;;
4317;SDS011;2172;53.576;9.934;2023-02-18T05:08:49;18.07;;;3.60;;
4317;SDS011;2172;53.576;9.934;2023-02-18T05:11:16;9.30;;;2.93;;
4317;SDS011;2172;53.576;9.934;2023-02-18T05:13:44;7.87;;;2.90;;
4317;SDS011;2172;53.576;9.934;2023-02-18T05:16:11;12.60;;;3.27;;
4317;SDS011;2172;53.576;9.934;2023-02-18T05:18:39;9.90;;;3.10;;
4317;SDS011;2172;53.576;9.934;2023-02-18T05:21:08;19.87;;;3.87;;
4317;SDS011;2172;53.576;9.934;2023-02-18T05:23:39;11.23;;;3.00;;
4317;SDS011;2172;53.576;9.934;2023-02-18T05:26:07;11.77;;;2.90;;
4317;SDS011;2172;53.576;9.934;2023-02-18T05:28:35;10.87;;;2.50;;
4317;SDS011;2172;53.576;9.934;2023-02-18T05:31:02;12.93;;;3.00;;
4317;SDS011;2172;53.576;9.934;2023-02-18T05:33:30;17.17;;;2.97;;
4317;SDS011;2172;53.576;9.934;2023-02-18T05:35:57;12.40;;;2.90;;
4317;SDS011;2172;53.576;9.934;2023-02-18T05:38:26;12.60;;;3.47;;
4317;SDS011;2172;53.576;9.934;2023-02-18T05:40:54;12.67;;;3.80;;
4317;SDS011;2172;53.576;9.934;2023-02-18T05:43:22;19.00;;;3.70;;
4317;SDS011;2172;53.576;9.934;2023-02-18T05:45:49;15.03;;;2.93;;
4317;SDS011;2172;53.576;9.934;2023-02-18T05:48:17;8.40;;;3.00;;
4317;SDS011;2172;53.576;9.934;2023-02-18T05:50:44;13.60;;;3.33;;
4317;SDS011;2172;53.576;9.934;2023-02-18T05:53:12;10.33;;;3.13;;
4317;SDS011;2172;53.576;9.934;2023-02-18T05:55:41;16.47;;;3.30;;
4317;SDS011;2172;53.576;9.934;2023-02-18T05:58:09;9.70;;;3.40;;
4317;SDS011;2172;53.576;9.934;2023-02-18T06:00:37;7.37;;;2.73;;
4317;SDS011;2172;53.576;9.934;2023-02-18T06:03:05;9.93;;;3.13;;
4317;SDS011;2172;53.576;9.934;2023-02-18T06:05:33;11.83;;;2.87;;
4317;SDS011;2172;53.576;9.934;2023-02-18T06:08:00;12.20;;;2.90;;
4317;SDS011;2172;53.576;9.934;2023-02-18T06:10:28;19.63;;;3.10;;
4317;SDS011;2172;53.576;9.934;2023-02-18T06:12:57;8.43;;;2.83;;
4317;SDS011;2172;53.576;9.934;2023-02-18T06:15:26;11.27;;;3.67;;
4317;SDS011;2172;53.576;9.934;2023-02-18T06:17:54;10.80;;;2.90;;
4317;SDS011;2172;53.576;9.934;2023-02-18T06:20:21;6.80;;;3.10;;
4317;SDS011;2172;53.576;9.934;2023-02-18T06:22:49;7.50;;;2.43;;
4317;SDS011;2172;53.576;9.934;2023-02-18T06:25:16;9.13;;;3.07;;
4317;SDS011;2172;53.576;9.934;2023-02-18T06:27:44;13.97;;;3.67;;
4317;SDS011;2172;53.576;9.934;2023-02-18T06:30:13;8.43;;;2.30;;
4317;SDS011;2172;53.576;9.934;2023-02-18T06:32:41;6.77;;;2.50;;
4317;SDS011;2172;53.576;9.934;2023-02-18T06:35:08;14.50;;;2.80;;
4317;SDS011;2172;53.576;9.934;2023-02-18T06:37:36;12.77;;;3.40;;
4317;SDS011;2172;53.576;9.934;2023-02-18T06:40:04;12.37;;;2.70;;
4317;SDS011;2172;53.576;9.934;2023-02-18T06:42:33;11.50;;;3.30;;
4317;SDS011;2172;53.576;9.934;2023-02-18T06:45:01;11.00;;;2.60;;
4317;SDS011;2172;53.576;9.934;2023-02-18T06:47:32;8.80;;;2.77;;
4317;SDS011;2172;53.576;9.934;2023-02-18T06:49:59;9.33;;;3.17;;
4317;SDS011;2172;53.576;9.934;2023-02-18T06:52:27;11.77;;;2.87;;
4317;SDS011;2172;53.576;9.934;2023-02-18T06:54:57;7.73;;;3.17;;
4317;SDS011;2172;53.576;9.934;2023-02-18T06:57:25;16.73;;;2.90;;
4317;SDS011;2172;53.576;9.934;2023-02-18T06:59:52;13.27;;;3.40;;
4317;SDS011;2172;53.576;9.934;2023-02-18T07:02:20;6.97;;;2.87;;
4317;SDS011;2172;53.576;9.934;2023-02-18T07:04:49;9.70;;;2.77;;
4317;SDS011;2172;53.576;9.934;2023-02-18T07:07:16;9.53;;;2.83;;
4317;SDS011;2172;53.576;9.934;2023-02-18T07:09:44;11.13;;;2.83;;
4317;SDS011;2172;53.576;9.934;2023-02-18T07:12:11;10.40;;;2.53;;
4317;SDS011;2172;53.576;9.934;2023-02-18T07:14:39;10.03;;;3.10;;
4317;SDS011;2172;53.576;9.934;2023-02-18T07:17:06;13.70;;;2.90;;
4317;SDS011;2172;53.576;9.934;2023-02-18T07:19:34;12.87;;;3.33;;
4317;SDS011;2172;53.576;9.934;2023-02-18T07:22:02;12.90;;;2.73;;
4317;SDS011;2172;53.576;9.934;2023-02-18T07:24:30;8.17;;;3.70;;
4317;SDS011;2172;53.576;9.934;2023-02-18T07:26:58;8.07;;;3.93;;
4317;SDS011;2172;53.576;9.934;2023-02-18T07:29:25;12.17;;;3.20;;
4317;SDS011;2172;53.576;9.934;2023-02-18T07:31:53;7.50;;;3.00;;
4317;SDS011;2172;53.576;9.934;2023-02-18T07:34:21;19.37;;;4.40;;
4317;SDS011;2172;53.576;9.934;2023-02-18T07:36:48;13.27;;;3.67;;
4317;SDS011;2172;53.576;9.934;2023-02-18T07:39:17;14.13;;;4.13;;
4317;SDS011;2172;53.576;9.934;2023-02-18T07:41:45;12.63;;;5.47;;
4317;SDS011;2172;53.576;9.934;2023-02-18T07:44:14;19.30;;;9.63;;
4317;SDS011;2172;53.576;9.934;2023-02-18T07:46:41;17.27;;;5.23;;
4317;SDS011;2172;53.576;9.934;2023-02-18T07:49:09;17.20;;;4.70;;
4317;SDS011;2172;53.576;9.934;2023-02-18T07:51:37;17.77;;;4.57;;
4317;SDS011;2172;53.576;9.934;2023-02-18T07:54:04;12.47;;;3.77;;
4317;SDS011;2172;53.576;9.934;2023-02-18T07:56:33;7.70;;;3.27;;
4317;SDS011;2172;53.576;9.934;2023-02-18T07:59:01;14.17;;;3.10;;
4317;SDS011;2172;53.576;9.934;2023-02-18T08:01:28;12.27;;;4.20;;
4317;SDS011;2172;53.576;9.934;2023-02-18T08:03:56;9.43;;;3.43;;
4317;SDS011;2172;53.576;9.934;2023-02-18T08:06:25;15.50;;;5.20;;
4317;SDS011;2172;53.576;9.934;2023-02-18T08:08:55;10.77;;;6.07;;
4317;SDS011;2172;53.576;9.934;2023-02-18T08:11:22;12.97;;;5.60;;
4317;SDS011;2172;53.576;9.934;2023-02-18T08:13:51;17.87;;;7.37;;
4317;SDS011;2172;53.576;9.934;2023-02-18T08:16:19;13.80;;;5.60;;
4317;SDS011;2172;53.576;9.934;2023-02-18T08:18:47;14.53;;;5.80;;
4317;SDS011;2172;53.576;9.934;2023-02-18T08:21:15;15.63;;;4.73;;
4317;SDS011;2172;53.576;9.934;2023-02-18T08:23:43;16.70;;;5.43;;
4317;SDS011;2172;53.576;9.934;2023-02-18T08:26:11;11.60;;;4.10;;
4317;SDS011;2172;53.576;9.934;2023-02-18T08:28:41;16.83;;;4.77;;
4317;SDS011;2172;53.576;9.934;2023-02-18T08:31:15;14.30;;;3.80;;
4317;SDS011;2172;53.576;9.934;2023-02-18T08:33:44;9.13;;;4.27;;
4317;SDS011;2172;53.576;9.934;2023-02-18T08:36:12;13.20;;;5.00;;
4317;SDS011;2172;53.576;9.934;2023-02-18T08:38:40;15.00;;;5.47;;
4317;SDS011;2172;53.576;9.934;2023-02-18T08:41:07;19.40;;;6.40;;
4317;SDS011;2172;53.576;9.934;2023-02-18T08:43:35;17.57;;;5.37;;
4317;SDS011;2172;53.576;9.934;2023-02-18T08:46:03;11.30;;;4.07;;
4317;SDS011;2172;53.576;9.934;2023-02-18T08:48:32;14.63;;;4.00;;
4317;SDS011;2172;53.576;9.934;2023-02-18T08:51:07;15.43;;;3.97;;
4317;SDS011;2172;53.576;9.934;2023-02-18T08:53:40;13.13;;;3.87;;
4317;SDS011;2172;53.576;9.934;2023-02-18T08:56:08;15.03;;;5.60;;
4317;SDS011;2172;53.576;9.934;2023-02-18T08:58:37;13.03;;;4.23;;
4317;SDS011;2172;53.576;9.934;2023-02-18T09:01:05;13.80;;;4.40;;
4317;SDS011;2172;53.576;9.934;2023-02-18T09:03:35;10.93;;;4.60;;
4317;SDS011;2172;53.576;9.934;2023-02-18T09:06:03;11.80;;;4.50;;
4317;SDS011;2172;53.576;9.934;2023-02-18T09:08:31;11.10;;;4.93;;
4317;SDS011;2172;53.576;9.934;2023-02-18T09:11:00;18.67;;;6.17;;
4317;SDS011;2172;53.576;9.934;2023-02-18T09:13:29;13.93;;;6.07;;
4317;SDS011;2172;53.576;9.934;2023-02-18T09:15:58;15.97;;;7.13;;
4317;SDS011;2172;53.576;9.934;2023-02-18T09:18:27;15.40;;;7.83;;
4317;SDS011;2172;53.576;9.934;2023-02-18T09:20:57;16.33;;;8.17;;
4317;SDS011;2172;53.576;9.934;2023-02-18T09:23:25;17.00;;;8.67;;
4317;SDS011;2172;53.576;9.934;2023-02-18T09:25:54;14.23;;;7.60;;
4317;SDS011;2172;53.576;9.934;2023-02-18T09:28:22;22.37;;;9.03;;
4317;SDS011;2172;53.576;9.934;2023-02-18T09:30:50;38.07;;;17.60;;
4317;SDS011;2172;53.576;9.934;2023-02-18T09:33:18;18.30;;;10.90;;
4317;SDS011;2172;53.576;9.934;2023-02-18T09:35:45;18.00;;;11.60;;
4317;SDS011;2172;53.576;9.934;2023-02-18T09:38:15;28.23;;;12.67;;
4317;SDS011;2172;53.576;9.934;2023-02-18T09:40:44;20.60;;;11.77;;
4317;SDS011;2172;53.576;9.934;2023-02-18T09:43:17;20.27;;;13.10;;
4317;SDS011;2172;53.576;9.934;2023-02-18T09:45:48;19.73;;;12.60;;
4317;SDS011;2172;53.576;9.934;2023-02-18T09:48:17;19.57;;;12.03;;
4317;SDS011;2172;53.576;9.934;2023-02-18T09:50:46;20.60;;;12.73;;
4317;SDS011;2172;53.576;9.934;2023-02-18T09:53:18;18.50;;;12.13;;
4317;SDS011;2172;53.576;9.934;2023-02-18T09:55:46;17.10;;;11.47;;
4317;SDS011;2172;53.576;9.934;2023-02-18T09:58:15;20.00;;;12.53;;
4317;SDS011;2172;53.576;9.934;2023-02-18T10:00:45;17.43;;;11.83;;
4317;SDS011;2172;53.576;9.934;2023-02-18T10:03:16;18.20;;;12.00;;
4317;SDS011;2172;53.576;9.934;2023-02-18T10:05:48;23.27;;;12.67;;
4317;SDS011;2172;53.576;9.934;2023-02-18T10:08:21;18.50;;;11.70;;
4317;SDS011;2172;53.576;9.934;2023-02-18T10:10:51;17.17;;;11.50;;
4317;SDS011;2172;53.576;9.934;2023-02-18T10:13:21;15.10;;;11.27;;
4317;SDS011;2172;53.576;9.934;2023-02-18T10:15:50;18.00;;;11.30;;
4317;SDS011;2172;53.576;9.934;2023-02-18T10:18:22;20.93;;;12.43;;
4317;SDS011;2172;53.576;9.934;2023-02-18T10:20:52;19.33;;;12.47;;
4317;SDS011;2172;53.576;9.934;2023-02-18T10:23:24;17.80;;;11.90;;
4317;SDS011;2172;53.576;9.934;2023-02-18T10:25:54;16.87;;;12.20;;
4317;SDS011;2172;53.576;9.934;2023-02-18T10:28:23;24.00;;;12.17;;
4317;SDS011;2172;53.576;9.934;2023-02-18T10:30:51;22.70;;;14.27;;
4317;SDS011;2172;53.576;9.934;2023-02-18T10:33:26;17.93;;;12.73;;
4317;SDS011;2172;53.576;9.934;2023-02-18T10:36:01;17.87;;;13.13;;
4317;SDS011;2172;53.576;9.934;2023-02-18T10:38:39;16.23;;;12.57;;
4317;SDS011;2172;53.576;9.934;2023-02-18T10:41:12;19.20;;;13.07;;
4317;SDS011;2172;53.576;9.934;2023-02-18T10:43:47;16.77;;;11.37;;
4317;SDS011;2172;53.576;9.934;2023-02-18T10:46:21;14.80;;;10.20;;
4317;SDS011;2172;53.576;9.934;2023-02-18T10:48:58;11.90;;;10.50;;
4317;SDS011;2172;53.576;9.934;2023-02-18T10:51:31;14.53;;;10.50;;
4317;SDS011;2172;53.576;9.934;2023-02-18T10:54:00;12.37;;;9.77;;
4317;SDS011;2172;53.576;9.934;2023-02-18T10:56:31;14.80;;;11.93;;
4317;SDS011;2172;53.576;9.934;2023-02-18T10:59:05;11.77;;;9.60;;
4317;SDS011;2172;53.576;9.934;2023-02-18T11:01:39;11.67;;;10.47;;
4317;SDS011;2172;53.576;9.934;2023-02-18T11:04:12;13.70;;;9.47;;
4317;SDS011;2172;53.576;9.934;2023-02-18T11:06:41;13.70;;;10.70;;
4317;SDS011;2172;53.576;9.934;2023-02-18T11:09:23;14.90;;;10.50;;
4317;SDS011;2172;53.576;9.934;2023-02-18T11:11:58;19.93;;;12.93;;
4317;SDS011;2172;53.576;9.934;2023-02-18T11:14:39;10.60;;;8.30;;
4317;SDS011;2172;53.576;9.934;2023-02-18T11:17:09;14.10;;;8.50;;
4317;SDS011;2172;53.576;9.934;2023-02-18T11:19:53;17.00;;;11.70;;
4317;SDS011;2172;53.576;9.934;2023-02-18T11:22:22;20.70;;;12.73;;
4317;SDS011;2172;53.576;9.934;2023-02-18T11:24:55;12.43;;;8.50;;
4317;SDS011;2172;53.576;9.934;2023-02-18T11:27:26;10.43;;;8.27;;
4317;SDS011;2172;53.576;9.934;2023-02-18T11:29:58;11.00;;;7.60;;
4317;SDS011;2172;53.576;9.934;2023-02-18T11:32:27;10.53;;;7.20;;
4317;SDS011;2172;53.576;9.934;2023-02-18T11:34:55;6.83;;;5.07;;
4317;SDS011;2172;53.576;9.934;2023-02-18T11:37:23;7.90;;;5.30;;
4317;SDS011;2172;53.576;9.934;2023-02-18T11:39:52;4.27;;;3.40;;
4317;SDS011;2172;53.576;9.934;2023-02-18T11:42:23;3.30;;;2.20;;
4317;SDS011;2172;53.576;9.934;2023-02-18T11:44:52;2.53;;;2.00;;
4317;SDS011;2172;53.576;9.934;2023-02-18T11:47:25;2.23;;;1.87;;
4317;SDS011;2172;53.576;9.934;2023-02-18T11:50:02;2.77;;;1.90;;
4317;SDS011;2172;53.576;9.934;2023-02-18T11:52:40;3.10;;;2.80;;
4317;SDS011;2172;53.576;9.934;2023-02-18T11:55:14;2.50;;;2.10;;
4317;SDS011;2172;53.576;9.934;2023-02-18T11:57:44;1.30;;;1.20;;
4317;SDS011;2172;53.576;9.934;2023-02-18T12:00:15;2.70;;;2.30;;
4317;SDS011;2172;53.576;9.934;2023-02-18T12:02:48;3.87;;;1.87;;
4317;SDS011;2172;53.576;9.934;2023-02-18T12:05:19;2.43;;;1.80;;
4317;SDS011;2172;53.576;9.934;2023-02-18T12:07:49;1.87;;;1.77;;
4317;SDS011;2172;53.576;9.934;2023-02-18T12:10:20;1.40;;;1.20;;
4317;SDS011;2172;53.576;9.934;2023-02-18T12:12:53;1.20;;;0.87;;
4317;SDS011;2172;53.576;9.934;2023-02-18T12:15:28;1.80;;;1.10;;
4317;SDS011;2172;53.576;9.934;2023-02-18T12:18:10;1.40;;;1.00;;
4317;SDS011;2172;53.576;9.934;2023-02-18T12:20:58;3.30;;;1.00;;
4317;SDS011;2172;53.576;9.934;2023-02-18T12:23:35;3.63;;;1.30;;
4317;SDS011;2172;53.576;9.934;2023-02-18T12:26:11;4.30;;;2.03;;
4317;SDS011;2172;53.576;9.934;2023-02-18T12:28:49;2.43;;;1.10;;
4317;SDS011;2172;53.576;9.934;2023-02-18T12:31:43;2.67;;;1.60;;
4317;SDS011;2172;53.576;9.934;2023-02-18T12:34:24;3.10;;;1.70;;
4317;SDS011;2172;53.576;9.934;2023-02-18T12:37:04;5.07;;;2.30;;
4317;SDS011;2172;53.576;9.934;2023-02-18T12:39:43;7.00;;;2.70;;
4317;SDS011;2172;53.576;9.934;2023-02-18T12:42:28;7.13;;;3.17;;
4317;SDS011;2172;53.576;9.934;2023-02-18T12:45:17;9.83;;;3.20;;
4317;SDS011;2172;53.576;9.934;2023-02-18T12:48:11;4.70;;;2.80;;
4317;SDS011;2172;53.576;9.934;2023-02-18T12:50:54;14.90;;;3.27;;
4317;SDS011;2172;53.576;9.934;2023-02-18T12:53:31;9.83;;;4.10;;
4317;SDS011;2172;53.576;9.934;2023-02-18T12:56:25;11.67;;;4.27;;
4317;SDS011;2172;53.576;9.934;2023-02-18T12:59:07;7.80;;;3.07;;
4317;SDS011;2172;53.576;9.934;2023-02-18T13:01:42;11.70;;;3.20;;
4317;SDS011;2172;53.576;9.934;2023-02-18T13:04:18;5.20;;;2.70;;
4317;SDS011;2172;53.576;9.934;2023-02-18T13:07:15;12.00;;;3.20;;
4317;SDS011;2172;53.576;9.934;2023-02-18T13:09:59;12.47;;;3.80;;
4317;SDS011;2172;53.576;9.934;2023-02-18T13:12:39;16.73;;;4.20;;
4317;SDS011;2172;53.576;9.934;2023-02-18T13:15:33;19.57;;;5.10;;
4317;SDS011;2172;53.576;9.934;2023-02-18T13:18:04;18.00;;;4.43;;
4317;SDS011;2172;53.576;9.934;2023-02-18T13:20:37;16.33;;;4.73;;
4317;SDS011;2172;53.576;9.934;2023-02-18T13:23:09;16.47;;;4.60;;
4317;SDS011;2172;53.576;9.934;2023-02-18T13:25:42;14.50;;;5.40;;
4317;SDS011;2172;53.576;9.934;2023-02-18T13:28:12;16.40;;;4.60;;
4317;SDS011;2172;53.576;9.934;2023-02-18T13:30:46;12.33;;;3.63;;
4317;SDS011;2172;53.576;9.934;2023-02-18T13:33:20;10.73;;;4.47;;
4317;SDS011;2172;53.576;9.934;2023-02-18T13:35:52;17.30;;;4.60;;
4317;SDS011;2172;53.576;9.934;2023-02-18T13:38:30;16.23;;;5.43;;
4317;SDS011;2172;53.576;9.934;2023-02-18T13:41:21;15.90;;;4.80;;
4317;SDS011;2172;53.576;9.934;2023-02-18T13:43:48;15.97;;;4.40;;
4317;SDS011;2172;53.576;9.934;2023-02-18T13:46:18;12.40;;;4.43;;
4317;SDS011;2172;53.576;9.934;2023-02-18T13:48:47;12.60;;;3.73;;
4317;SDS011;2172;53.576;9.934;2023-02-18T13:51:16;17.07;;;4.73;;
4317;SDS011;2172;53.576;9.934;2023-02-18T13:53:55;16.60;;;4.27;;
4317;SDS011;2172;53.576;9.934;2023-02-18T13:56:27;13.23;;;4.30;;
4317;SDS011;2172;53.576;9.934;2023-02-18T13:58:58;18.43;;;5.80;;
4317;SDS011;2172;53.576;9.934;2023-02-18T14:01:41;15.50;;;4.83;;
4317;SDS011;2172;53.576;9.934;2023-02-18T14:07:22;13.13;;;5.13;;
4317;SDS011;2172;53.576;9.934;2023-02-18T14:10:00;7.37;;;4.70;;
4317;SDS011;2172;53.576;9.934;2023-02-18T14:12:35;15.97;;;3.83;;
4317;SDS011;2172;53.576;9.934;2023-02-18T14:18:20;11.70;;;4.40;;
4317;SDS011;2172;53.576;9.934;2023-02-18T14:20:51;9.03;;;2.53;;
4317;SDS011;2172;53.576;9.934;2023-02-18T14:26:06;7.73;;;3.47;;
4317;SDS011;2172;53.576;9.934;2023-02-18T14:28:36;4.90;;;3.63;;
4317;SDS011;2172;53.576;9.934;2023-02-18T14:33:58;3.47;;;3.17;;
4317;SDS011;2172;53.576;9.934;2023-02-18T14:36:49;4.70;;;4.13;;
4317;SDS011;2172;53.576;9.934;2023-02-18T14:39:27;4.03;;;3.30;;
4317;SDS011;2172;53.576;9.934;2023-02-18T14:42:01;6.00;;;5.50;;
4317;SDS011;2172;53.576;9.934;2023-02-18T14:44:38;4.50;;;4.10;;
4317;SDS011;2172;53.576;9.934;2023-02-18T14:47:18;5.00;;;4.30;;
4317;SDS011;2172;53.576;9.934;2023-02-18T14:49:52;5.10;;;4.53;;
4317;SDS011;2172;53.576;9.934;2023-02-18T14:52:24;8.07;;;7.37;;
4317;SDS011;2172;53.576;9.934;2023-02-18T14:54:55;9.80;;;8.97;;
4317;SDS011;2172;53.576;9.934;2023-02-18T14:57:25;6.10;;;5.60;;
4317;SDS011;2172;53.576;9.934;2023-02-18T14:59:58;5.40;;;4.53;;
4317;SDS011;2172;53.576;9.934;2023-02-18T15:02:26;4.20;;;3.80;;
4317;SDS011;2172;53.576;9.934;2023-02-18T15:05:07;4.90;;;4.40;;
4317;SDS011;2172;53.576;9.934;2023-02-18T15:07:39;5.27;;;4.47;;
4317;SDS011;2172;53.576;9.934;2023-02-18T15:10:12;4.70;;;3.97;;
4317;SDS011;2172;53.576;9.934;2023-02-18T15:12:40;3.67;;;2.97;;
4317;SDS011;2172;53.576;9.934;2023-02-18T15:15:08;3.63;;;3.27;;
4317;SDS011;2172;53.576;9.934;2023-02-18T15:17:40;5.13;;;4.63;;
4317;SDS011;2172;53.576;9.934;2023-02-18T15:20:13;3.23;;;2.90;;
4317;SDS011;2172;53.576;9.934;2023-02-18T15:22:41;4.00;;;3.63;;
4317;SDS011;2172;53.576;9.934;2023-02-18T15:25:10;3.33;;;3.07;;
4317;SDS011;2172;53.576;9.934;2023-02-18T15:27:39;3.00;;;2.37;;
4317;SDS011;2172;53.576;9.934;2023-02-18T15:30:18;2.37;;;2.17;;
4317;SDS011;2172;53.576;9.934;2023-02-18T15:32:50;2.47;;;2.00;;
4317;SDS011;2172;53.576;9.934;2023-02-18T15:35:20;2.17;;;1.97;;
4317;SDS011;2172;53.576;9.934;2023-02-18T15:37:53;2.93;;;2.20;;
4317;SDS011;2172;53.576;9.934;2023-02-18T15:40:21;4.37;;;3.63;;
4317;SDS011;2172;53.576;9.934;2023-02-18T15:42:51;4.13;;;3.73;;